sensor_id;sensor_type;location;lat;lon;timestamp;P1;durP1;ratioP1;P2;durP2;ratioP2
80586;SDS011;69943;20.850;106.728;2023-11-18T00:01:55;9.10;;;5.80;;
80586;SDS011;69943;20.850;106.728;2023-11-18T00:04:27;10.00;;;5.60;;
80586;SDS011;69943;20.850;106.728;2023-11-18T00:07:00;13.50;;;6.10;;
80586;SDS011;69943;20.850;106.728;2023-11-18T00:09:32;7.50;;;5.00;;
80586;SDS011;69943;20.850;106.728;2023-11-18T00:12:05;11.30;;;5.90;;
80586;SDS011;69943;20.850;106.728;2023-11-18T00:14:39;8.30;;;5.30;;
80586;SDS011;69943;20.850;106.728;2023-11-18T00:17:13;8.30;;;5.40;;
80586;SDS011;69943;20.850;106.728;2023-11-18T00:19:46;7.30;;;5.30;;
80586;SDS011;69943;20.850;106.728;2023-11-18T00:22:19;11.50;;;5.60;;
80586;SDS011;69943;20.850;106.728;2023-11-18T00:24:51;8.50;;;5.20;;
80586;SDS011;69943;20.850;106.728;2023-11-18T00:27:23;10.00;;;5.10;;
80586;SDS011;69943;20.850;106.728;2023-11-18T00:29:56;7.80;;;4.70;;
80586;SDS011;69943;20.850;106.728;2023-11-18T00:32:29;6.40;;;4.80;;
80586;SDS011;69943;20.850;106.728;2023-11-18T00:35:02;13.10;;;5.40;;
80586;SDS011;69943;20.850;106.728;2023-11-18T00:37:37;8.70;;;5.00;;
80586;SDS011;69943;20.850;106.728;2023-11-18T00:40:10;10.10;;;5.00;;
80586;SDS011;69943;20.850;106.728;2023-11-18T00:42:42;11.50;;;5.50;;
80586;SDS011;69943;20.850;106.728;2023-11-18T00:45:16;10.00;;;5.40;;
80586;SDS011;69943;20.850;106.728;2023-11-18T00:47:49;8.30;;;5.20;;
80586;SDS011;69943;20.850;106.728;2023-11-18T00:50:21;8.70;;;5.40;;
80586;SDS011;69943;20.850;106.728;2023-11-18T00:52:54;10.60;;;5.50;;
80586;SDS011;69943;20.850;106.728;2023-11-18T00:55:26;7.40;;;5.00;;
80586;SDS011;69943;20.850;106.728;2023-11-18T00:57:59;9.60;;;5.60;;
80586;SDS011;69943;20.850;106.728;2023-11-18T01:00:31;7.90;;;5.10;;
80586;SDS011;69943;20.850;106.728;2023-11-18T01:03:03;13.10;;;5.30;;
80586;SDS011;69943;20.850;106.728;2023-11-18T01:05:36;7.90;;;4.90;;
80586;SDS011;69943;20.850;106.728;2023-11-18T01:08:10;12.90;;;5.50;;
80586;SDS011;69943;20.850;106.728;2023-11-18T01:10:42;10.90;;;5.70;;
80586;SDS011;69943;20.850;106.728;2023-11-18T01:13:15;8.70;;;5.30;;
80586;SDS011;69943;20.850;106.728;2023-11-18T01:15:48;11.70;;;5.10;;
80586;SDS011;69943;20.850;106.728;2023-11-18T01:18:20;9.20;;;5.00;;
80586;SDS011;69943;20.850;106.728;2023-11-18T01:20:52;10.50;;;5.30;;
80586;SDS011;69943;20.850;106.728;2023-11-18T01:23:25;11.20;;;5.30;;
80586;SDS011;69943;20.850;106.728;2023-11-18T01:25:57;8.60;;;4.70;;
80586;SDS011;69943;20.850;106.728;2023-11-18T01:28:29;7.30;;;4.80;;
80586;SDS011;69943;20.850;106.728;2023-11-18T01:31:08;8.90;;;4.80;;
80586;SDS011;69943;20.850;106.728;2023-11-18T01:33:41;13.20;;;6.00;;
80586;SDS011;69943;20.850;106.728;2023-11-18T01:36:16;13.20;;;5.00;;
80586;SDS011;69943;20.850;106.728;2023-11-18T01:38:49;10.50;;;4.70;;
80586;SDS011;69943;20.850;106.728;2023-11-18T01:41:22;11.00;;;5.50;;
80586;SDS011;69943;20.850;106.728;2023-11-18T01:43:54;8.60;;;4.20;;
80586;SDS011;69943;20.850;106.728;2023-11-18T01:46:26;7.80;;;4.80;;
80586;SDS011;69943;20.850;106.728;2023-11-18T01:49:01;11.70;;;4.90;;
80586;SDS011;69943;20.850;106.728;2023-11-18T01:51:34;11.00;;;5.10;;
80586;SDS011;69943;20.850;106.728;2023-11-18T01:54:21;9.40;;;5.20;;
80586;SDS011;69943;20.850;106.728;2023-11-18T01:56:54;12.90;;;6.00;;
80586;SDS011;69943;20.850;106.728;2023-11-18T01:59:26;15.60;;;5.90;;
80586;SDS011;69943;20.850;106.728;2023-11-18T02:02:13;12.00;;;5.60;;
80586;SDS011;69943;20.850;106.728;2023-11-18T02:04:46;11.80;;;5.90;;
80586;SDS011;69943;20.850;106.728;2023-11-18T02:07:18;10.40;;;5.90;;
80586;SDS011;69943;20.850;106.728;2023-11-18T02:09:52;11.10;;;5.30;;
80586;SDS011;69943;20.850;106.728;2023-11-18T02:12:29;10.70;;;5.50;;
80586;SDS011;69943;20.850;106.728;2023-11-18T02:15:24;10.20;;;5.40;;
80586;SDS011;69943;20.850;106.728;2023-11-18T02:17:57;12.40;;;5.20;;
80586;SDS011;69943;20.850;106.728;2023-11-18T02:20:33;8.20;;;6.20;;
80586;SDS011;69943;20.850;106.728;2023-11-18T02:23:06;12.50;;;4.80;;
80586;SDS011;69943;20.850;106.728;2023-11-18T02:25:45;14.30;;;5.60;;
80586;SDS011;69943;20.850;106.728;2023-11-18T02:28:18;11.00;;;5.50;;
80586;SDS011;69943;20.850;106.728;2023-11-18T02:30:51;11.20;;;5.30;;
80586;SDS011;69943;20.850;106.728;2023-11-18T02:33:53;9.70;;;5.40;;
80586;SDS011;69943;20.850;106.728;2023-11-18T02:36:44;8.70;;;5.50;;
80586;SDS011;69943;20.850;106.728;2023-11-18T02:39:25;11.00;;;5.20;;
80586;SDS011;69943;20.850;106.728;2023-11-18T02:42:04;9.90;;;5.10;;
80586;SDS011;69943;20.850;106.728;2023-11-18T02:44:38;10.60;;;5.20;;
80586;SDS011;69943;20.850;106.728;2023-11-18T02:47:12;7.70;;;5.90;;
80586;SDS011;69943;20.850;106.728;2023-11-18T02:49:49;8.70;;;4.60;;
80586;SDS011;69943;20.850;106.728;2023-11-18T02:52:27;11.50;;;5.30;;
80586;SDS011;69943;20.850;106.728;2023-11-18T02:54:59;12.60;;;5.00;;
80586;SDS011;69943;20.850;106.728;2023-11-18T02:57:32;12.80;;;6.80;;
80586;SDS011;69943;20.850;106.728;2023-11-18T03:00:04;11.30;;;5.50;;
80586;SDS011;69943;20.850;106.728;2023-11-18T03:02:43;10.50;;;5.80;;
80586;SDS011;69943;20.850;106.728;2023-11-18T03:05:18;10.60;;;4.40;;
80586;SDS011;69943;20.850;106.728;2023-11-18T03:07:50;10.00;;;5.00;;
80586;SDS011;69943;20.850;106.728;2023-11-18T03:10:27;12.80;;;5.20;;
80586;SDS011;69943;20.850;106.728;2023-11-18T03:13:01;9.40;;;5.00;;
80586;SDS011;69943;20.850;106.728;2023-11-18T03:15:33;11.10;;;5.50;;
80586;SDS011;69943;20.850;106.728;2023-11-18T03:18:06;7.70;;;4.70;;
80586;SDS011;69943;20.850;106.728;2023-11-18T03:20:38;11.10;;;5.40;;
80586;SDS011;69943;20.850;106.728;2023-11-18T03:23:11;11.20;;;5.10;;
80586;SDS011;69943;20.850;106.728;2023-11-18T03:25:44;8.60;;;5.20;;
80586;SDS011;69943;20.850;106.728;2023-11-18T03:28:18;10.90;;;4.80;;
80586;SDS011;69943;20.850;106.728;2023-11-18T03:30:50;11.30;;;5.90;;
80586;SDS011;69943;20.850;106.728;2023-11-18T03:33:23;11.10;;;5.50;;
80586;SDS011;69943;20.850;106.728;2023-11-18T03:35:55;13.60;;;5.50;;
80586;SDS011;69943;20.850;106.728;2023-11-18T03:38:27;14.10;;;5.00;;
80586;SDS011;69943;20.850;106.728;2023-11-18T03:41:00;13.10;;;5.00;;
80586;SDS011;69943;20.850;106.728;2023-11-18T03:43:32;11.90;;;5.70;;
80586;SDS011;69943;20.850;106.728;2023-11-18T03:46:04;13.10;;;5.50;;
80586;SDS011;69943;20.850;106.728;2023-11-18T03:48:38;13.30;;;5.40;;
80586;SDS011;69943;20.850;106.728;2023-11-18T03:51:10;9.30;;;4.90;;
80586;SDS011;69943;20.850;106.728;2023-11-18T03:53:42;14.00;;;4.90;;
80586;SDS011;69943;20.850;106.728;2023-11-18T03:56:17;12.50;;;6.00;;
80586;SDS011;69943;20.850;106.728;2023-11-18T03:58:50;12.10;;;4.70;;
80586;SDS011;69943;20.850;106.728;2023-11-18T04:01:22;11.20;;;5.60;;
80586;SDS011;69943;20.850;106.728;2023-11-18T04:03:58;13.50;;;4.90;;
80586;SDS011;69943;20.850;106.728;2023-11-18T04:06:30;13.20;;;5.20;;
80586;SDS011;69943;20.850;106.728;2023-11-18T04:09:03;9.50;;;4.90;;
80586;SDS011;69943;20.850;106.728;2023-11-18T04:11:36;13.00;;;6.30;;
80586;SDS011;69943;20.850;106.728;2023-11-18T04:14:09;8.80;;;5.20;;
80586;SDS011;69943;20.850;106.728;2023-11-18T04:16:44;13.60;;;5.40;;
80586;SDS011;69943;20.850;106.728;2023-11-18T04:19:17;13.80;;;5.40;;
80586;SDS011;69943;20.850;106.728;2023-11-18T04:21:49;7.90;;;4.90;;
80586;SDS011;69943;20.850;106.728;2023-11-18T04:24:21;12.20;;;5.60;;
80586;SDS011;69943;20.850;106.728;2023-11-18T04:26:53;6.70;;;3.90;;
80586;SDS011;69943;20.850;106.728;2023-11-18T04:29:26;11.60;;;4.70;;
80586;SDS011;69943;20.850;106.728;2023-11-18T04:31:58;11.60;;;5.10;;
80586;SDS011;69943;20.850;106.728;2023-11-18T04:34:30;8.70;;;5.10;;
80586;SDS011;69943;20.850;106.728;2023-11-18T04:37:04;9.90;;;4.80;;
80586;SDS011;69943;20.850;106.728;2023-11-18T04:39:37;11.30;;;4.50;;
80586;SDS011;69943;20.850;106.728;2023-11-18T04:42:09;11.00;;;4.70;;
80586;SDS011;69943;20.850;106.728;2023-11-18T04:44:41;11.20;;;4.80;;
80586;SDS011;69943;20.850;106.728;2023-11-18T04:47:14;10.70;;;4.70;;
80586;SDS011;69943;20.850;106.728;2023-11-18T04:49:49;9.60;;;4.40;;
80586;SDS011;69943;20.850;106.728;2023-11-18T04:52:21;10.80;;;4.80;;
80586;SDS011;69943;20.850;106.728;2023-11-18T04:54:54;14.50;;;5.60;;
80586;SDS011;69943;20.850;106.728;2023-11-18T04:57:26;9.30;;;4.80;;
80586;SDS011;69943;20.850;106.728;2023-11-18T04:59:58;10.30;;;4.60;;
80586;SDS011;69943;20.850;106.728;2023-11-18T05:02:40;9.10;;;4.60;;
80586;SDS011;69943;20.850;106.728;2023-11-18T05:05:14;10.70;;;4.40;;
80586;SDS011;69943;20.850;106.728;2023-11-18T05:07:47;9.20;;;4.90;;
80586;SDS011;69943;20.850;106.728;2023-11-18T05:10:19;8.20;;;4.70;;
80586;SDS011;69943;20.850;106.728;2023-11-18T05:12:51;7.70;;;4.40;;
80586;SDS011;69943;20.850;106.728;2023-11-18T05:15:26;7.30;;;4.70;;
80586;SDS011;69943;20.850;106.728;2023-11-18T05:18:00;12.50;;;5.00;;
80586;SDS011;69943;20.850;106.728;2023-11-18T05:20:32;10.80;;;4.80;;
80586;SDS011;69943;20.850;106.728;2023-11-18T05:23:05;8.50;;;4.60;;
80586;SDS011;69943;20.850;106.728;2023-11-18T05:25:39;7.00;;;4.10;;
80586;SDS011;69943;20.850;106.728;2023-11-18T05:28:11;10.20;;;5.10;;
80586;SDS011;69943;20.850;106.728;2023-11-18T05:30:44;7.20;;;4.70;;
80586;SDS011;69943;20.850;106.728;2023-11-18T05:33:17;10.10;;;4.80;;
80586;SDS011;69943;20.850;106.728;2023-11-18T05:35:50;6.50;;;4.50;;
80586;SDS011;69943;20.850;106.728;2023-11-18T05:38:22;10.30;;;5.10;;
80586;SDS011;69943;20.850;106.728;2023-11-18T05:40:57;11.40;;;5.10;;
80586;SDS011;69943;20.850;106.728;2023-11-18T05:43:32;7.30;;;4.60;;
80586;SDS011;69943;20.850;106.728;2023-11-18T05:46:11;9.20;;;4.40;;
80586;SDS011;69943;20.850;106.728;2023-11-18T05:48:52;8.60;;;4.40;;
80586;SDS011;69943;20.850;106.728;2023-11-18T05:51:25;10.70;;;4.40;;
80586;SDS011;69943;20.850;106.728;2023-11-18T05:53:59;10.20;;;4.70;;
80586;SDS011;69943;20.850;106.728;2023-11-18T05:56:32;11.60;;;4.50;;
80586;SDS011;69943;20.850;106.728;2023-11-18T05:59:06;8.40;;;4.50;;
80586;SDS011;69943;20.850;106.728;2023-11-18T06:01:39;9.30;;;4.90;;
80586;SDS011;69943;20.850;106.728;2023-11-18T06:04:12;6.80;;;4.50;;
80586;SDS011;69943;20.850;106.728;2023-11-18T06:06:44;7.40;;;5.10;;
80586;SDS011;69943;20.850;106.728;2023-11-18T06:09:18;8.60;;;4.50;;
80586;SDS011;69943;20.850;106.728;2023-11-18T06:11:52;9.20;;;4.30;;
80586;SDS011;69943;20.850;106.728;2023-11-18T06:14:24;7.10;;;4.60;;
80586;SDS011;69943;20.850;106.728;2023-11-18T06:16:57;8.50;;;4.40;;
80586;SDS011;69943;20.850;106.728;2023-11-18T06:19:31;9.60;;;5.40;;
80586;SDS011;69943;20.850;106.728;2023-11-18T06:22:03;8.10;;;4.70;;
80586;SDS011;69943;20.850;106.728;2023-11-18T06:24:36;8.00;;;4.80;;
80586;SDS011;69943;20.850;106.728;2023-11-18T06:27:10;8.20;;;4.70;;
80586;SDS011;69943;20.850;106.728;2023-11-18T06:29:43;9.20;;;4.40;;
80586;SDS011;69943;20.850;106.728;2023-11-18T06:32:16;8.30;;;4.80;;
80586;SDS011;69943;20.850;106.728;2023-11-18T06:34:48;8.70;;;5.10;;
80586;SDS011;69943;20.850;106.728;2023-11-18T06:37:20;8.30;;;4.40;;
80586;SDS011;69943;20.850;106.728;2023-11-18T06:39:53;12.30;;;4.80;;
80586;SDS011;69943;20.850;106.728;2023-11-18T06:42:26;10.20;;;5.20;;
80586;SDS011;69943;20.850;106.728;2023-11-18T06:44:58;8.40;;;4.30;;
80586;SDS011;69943;20.850;106.728;2023-11-18T06:47:31;7.60;;;4.20;;
80586;SDS011;69943;20.850;106.728;2023-11-18T06:50:05;9.40;;;4.60;;
80586;SDS011;69943;20.850;106.728;2023-11-18T06:52:43;9.60;;;4.80;;
80586;SDS011;69943;20.850;106.728;2023-11-18T06:55:15;6.70;;;4.60;;
80586;SDS011;69943;20.850;106.728;2023-11-18T06:57:48;9.10;;;4.60;;
80586;SDS011;69943;20.850;106.728;2023-11-18T07:00:20;8.10;;;4.40;;
80586;SDS011;69943;20.850;106.728;2023-11-18T07:02:53;10.70;;;4.10;;
80586;SDS011;69943;20.850;106.728;2023-11-18T07:05:26;7.50;;;4.80;;
80586;SDS011;69943;20.850;106.728;2023-11-18T07:07:58;10.60;;;5.40;;
80586;SDS011;69943;20.850;106.728;2023-11-18T07:10:30;8.90;;;4.40;;
80586;SDS011;69943;20.850;106.728;2023-11-18T07:13:02;6.90;;;4.50;;
80586;SDS011;69943;20.850;106.728;2023-11-18T07:15:35;9.90;;;4.20;;
80586;SDS011;69943;20.850;106.728;2023-11-18T07:18:07;8.30;;;4.90;;
80586;SDS011;69943;20.850;106.728;2023-11-18T07:20:40;13.40;;;5.40;;
80586;SDS011;69943;20.850;106.728;2023-11-18T07:23:12;10.90;;;4.90;;
80586;SDS011;69943;20.850;106.728;2023-11-18T07:25:45;6.30;;;4.50;;
80586;SDS011;69943;20.850;106.728;2023-11-18T07:28:18;8.30;;;4.30;;
80586;SDS011;69943;20.850;106.728;2023-11-18T07:30:51;10.90;;;4.70;;
80586;SDS011;69943;20.850;106.728;2023-11-18T07:33:24;9.50;;;4.30;;
80586;SDS011;69943;20.850;106.728;2023-11-18T07:35:58;8.00;;;4.70;;
80586;SDS011;69943;20.850;106.728;2023-11-18T07:38:30;8.40;;;4.40;;
80586;SDS011;69943;20.850;106.728;2023-11-18T07:41:04;11.40;;;5.00;;
80586;SDS011;69943;20.850;106.728;2023-11-18T07:43:39;7.70;;;4.40;;
80586;SDS011;69943;20.850;106.728;2023-11-18T07:46:12;9.20;;;4.50;;
80586;SDS011;69943;20.850;106.728;2023-11-18T07:48:45;9.50;;;4.20;;
80586;SDS011;69943;20.850;106.728;2023-11-18T07:51:18;9.30;;;4.30;;
80586;SDS011;69943;20.850;106.728;2023-11-18T07:53:55;12.10;;;4.80;;
80586;SDS011;69943;20.850;106.728;2023-11-18T07:56:28;13.00;;;4.70;;
80586;SDS011;69943;20.850;106.728;2023-11-18T07:59:02;5.80;;;3.90;;
80586;SDS011;69943;20.850;106.728;2023-11-18T08:01:36;7.80;;;4.60;;
80586;SDS011;69943;20.850;106.728;2023-11-18T08:04:18;7.70;;;4.80;;
80586;SDS011;69943;20.850;106.728;2023-11-18T08:06:52;7.70;;;4.30;;
80586;SDS011;69943;20.850;106.728;2023-11-18T08:09:24;12.20;;;5.10;;
80586;SDS011;69943;20.850;106.728;2023-11-18T08:11:57;10.20;;;4.60;;
80586;SDS011;69943;20.850;106.728;2023-11-18T08:14:29;5.70;;;4.20;;
80586;SDS011;69943;20.850;106.728;2023-11-18T08:19:38;15.80;;;5.10;;
80586;SDS011;69943;20.850;106.728;2023-11-18T08:22:10;6.80;;;4.70;;
80586;SDS011;69943;20.850;106.728;2023-11-18T08:24:42;7.50;;;4.20;;
80586;SDS011;69943;20.850;106.728;2023-11-18T08:27:15;5.50;;;4.40;;
80586;SDS011;69943;20.850;106.728;2023-11-18T08:29:48;7.80;;;4.20;;
80586;SDS011;69943;20.850;106.728;2023-11-18T08:32:20;5.60;;;4.00;;
80586;SDS011;69943;20.850;106.728;2023-11-18T08:34:53;7.90;;;4.90;;
80586;SDS011;69943;20.850;106.728;2023-11-18T08:37:26;5.70;;;4.30;;
80586;SDS011;69943;20.850;106.728;2023-11-18T08:39:58;7.40;;;4.00;;
80586;SDS011;69943;20.850;106.728;2023-11-18T08:42:31;7.30;;;4.30;;
80586;SDS011;69943;20.850;106.728;2023-11-18T08:45:05;8.30;;;4.40;;
80586;SDS011;69943;20.850;106.728;2023-11-18T08:47:38;7.70;;;4.80;;
80586;SDS011;69943;20.850;106.728;2023-11-18T08:50:15;8.30;;;4.80;;
80586;SDS011;69943;20.850;106.728;2023-11-18T08:52:47;6.20;;;4.50;;
80586;SDS011;69943;20.850;106.728;2023-11-18T08:55:24;8.10;;;3.90;;
80586;SDS011;69943;20.850;106.728;2023-11-18T08:58:12;7.50;;;4.70;;
80586;SDS011;69943;20.850;106.728;2023-11-18T09:00:54;9.40;;;5.00;;
80586;SDS011;69943;20.850;106.728;2023-11-18T09:03:37;8.10;;;4.70;;
80586;SDS011;69943;20.850;106.728;2023-11-18T09:06:14;9.70;;;4.80;;
80586;SDS011;69943;20.850;106.728;2023-11-18T09:08:56;6.90;;;4.80;;
80586;SDS011;69943;20.850;106.728;2023-11-18T09:11:28;8.60;;;4.90;;
80586;SDS011;69943;20.850;106.728;2023-11-18T09:14:03;10.80;;;4.20;;
80586;SDS011;69943;20.850;106.728;2023-11-18T09:16:38;8.50;;;4.10;;
80586;SDS011;69943;20.850;106.728;2023-11-18T09:19:12;8.60;;;4.60;;
80586;SDS011;69943;20.850;106.728;2023-11-18T09:21:45;10.10;;;5.50;;
80586;SDS011;69943;20.850;106.728;2023-11-18T09:24:17;5.80;;;4.30;;
80586;SDS011;69943;20.850;106.728;2023-11-18T09:26:55;9.80;;;4.70;;
80586;SDS011;69943;20.850;106.728;2023-11-18T09:29:28;8.00;;;3.90;;
80586;SDS011;69943;20.850;106.728;2023-11-18T09:32:00;9.30;;;4.60;;
80586;SDS011;69943;20.850;106.728;2023-11-18T09:34:36;6.90;;;3.90;;
80586;SDS011;69943;20.850;106.728;2023-11-18T09:37:10;10.50;;;4.30;;
80586;SDS011;69943;20.850;106.728;2023-11-18T09:39:42;7.40;;;4.20;;
80586;SDS011;69943;20.850;106.728;2023-11-18T09:42:16;15.80;;;5.10;;
80586;SDS011;69943;20.850;106.728;2023-11-18T09:44:50;5.90;;;4.30;;
80586;SDS011;69943;20.850;106.728;2023-11-18T09:47:24;7.30;;;4.10;;
80586;SDS011;69943;20.850;106.728;2023-11-18T09:49:58;6.90;;;3.60;;
80586;SDS011;69943;20.850;106.728;2023-11-18T09:52:34;4.90;;;3.50;;
80586;SDS011;69943;20.850;106.728;2023-11-18T09:55:15;7.40;;;4.30;;
80586;SDS011;69943;20.850;106.728;2023-11-18T09:58:03;6.90;;;3.90;;
80586;SDS011;69943;20.850;106.728;2023-11-18T10:00:42;7.90;;;4.30;;
80586;SDS011;69943;20.850;106.728;2023-11-18T10:03:14;6.80;;;4.30;;
80586;SDS011;69943;20.850;106.728;2023-11-18T10:05:47;4.90;;;3.80;;
80586;SDS011;69943;20.850;106.728;2023-11-18T10:08:20;7.10;;;4.00;;
80586;SDS011;69943;20.850;106.728;2023-11-18T10:10:56;6.80;;;3.70;;
80586;SDS011;69943;20.850;106.728;2023-11-18T10:13:39;6.10;;;4.10;;
80586;SDS011;69943;20.850;106.728;2023-11-18T10:16:15;7.60;;;4.70;;
80586;SDS011;69943;20.850;106.728;2023-11-18T10:18:49;8.00;;;4.10;;
80586;SDS011;69943;20.850;106.728;2023-11-18T10:21:34;6.90;;;4.40;;
80586;SDS011;69943;20.850;106.728;2023-11-18T10:24:10;9.90;;;4.30;;
80586;SDS011;69943;20.850;106.728;2023-11-18T10:26:55;5.80;;;4.30;;
80586;SDS011;69943;20.850;106.728;2023-11-18T10:29:27;5.10;;;3.50;;
80586;SDS011;69943;20.850;106.728;2023-11-18T10:32:05;7.30;;;4.10;;
80586;SDS011;69943;20.850;106.728;2023-11-18T10:34:50;7.60;;;4.60;;
80586;SDS011;69943;20.850;106.728;2023-11-18T10:37:23;5.60;;;3.90;;
80586;SDS011;69943;20.850;106.728;2023-11-18T10:40:04;9.30;;;3.90;;
80586;SDS011;69943;20.850;106.728;2023-11-18T10:42:37;6.10;;;3.70;;
80586;SDS011;69943;20.850;106.728;2023-11-18T10:45:09;6.40;;;4.30;;
80586;SDS011;69943;20.850;106.728;2023-11-18T10:47:46;7.40;;;4.20;;
80586;SDS011;69943;20.850;106.728;2023-11-18T10:50:19;5.90;;;4.10;;
80586;SDS011;69943;20.850;106.728;2023-11-18T10:52:52;8.00;;;3.90;;
80586;SDS011;69943;20.850;106.728;2023-11-18T10:55:31;10.10;;;4.70;;
80586;SDS011;69943;20.850;106.728;2023-11-18T10:58:09;7.00;;;4.10;;
80586;SDS011;69943;20.850;106.728;2023-11-18T11:00:45;8.60;;;4.50;;
80586;SDS011;69943;20.850;106.728;2023-11-18T11:03:19;6.50;;;3.90;;
80586;SDS011;69943;20.850;106.728;2023-11-18T11:05:54;8.20;;;4.00;;
80586;SDS011;69943;20.850;106.728;2023-11-18T11:08:26;8.90;;;4.00;;
80586;SDS011;69943;20.850;106.728;2023-11-18T11:10:59;5.20;;;3.80;;
80586;SDS011;69943;20.850;106.728;2023-11-18T11:13:34;6.80;;;3.70;;
80586;SDS011;69943;20.850;106.728;2023-11-18T11:16:08;6.80;;;3.90;;
80586;SDS011;69943;20.850;106.728;2023-11-18T11:18:44;5.70;;;3.90;;
80586;SDS011;69943;20.850;106.728;2023-11-18T11:21:27;7.70;;;3.90;;
80586;SDS011;69943;20.850;106.728;2023-11-18T11:24:06;10.20;;;4.40;;
80586;SDS011;69943;20.850;106.728;2023-11-18T11:30:02;8.50;;;5.00;;
80586;SDS011;69943;20.850;106.728;2023-11-18T11:32:51;8.10;;;4.10;;
80586;SDS011;69943;20.850;106.728;2023-11-18T11:35:27;5.80;;;4.20;;
80586;SDS011;69943;20.850;106.728;2023-11-18T11:38:03;5.40;;;4.70;;
80586;SDS011;69943;20.850;106.728;2023-11-18T11:40:43;6.20;;;5.00;;
80586;SDS011;69943;20.850;106.728;2023-11-18T11:43:17;6.80;;;4.90;;
80586;SDS011;69943;20.850;106.728;2023-11-18T11:45:52;9.00;;;4.60;;
80586;SDS011;69943;20.850;106.728;2023-11-18T11:48:26;8.10;;;4.50;;
80586;SDS011;69943;20.850;106.728;2023-11-18T11:53:49;7.00;;;4.80;;
80586;SDS011;69943;20.850;106.728;2023-11-18T11:56:48;9.30;;;4.90;;
80586;SDS011;69943;20.850;106.728;2023-11-18T12:02:17;8.00;;;5.10;;
80586;SDS011;69943;20.850;106.728;2023-11-18T12:04:55;8.00;;;4.20;;
80586;SDS011;69943;20.850;106.728;2023-11-18T12:07:37;8.60;;;4.60;;
80586;SDS011;69943;20.850;106.728;2023-11-18T12:10:12;8.60;;;5.10;;
80586;SDS011;69943;20.850;106.728;2023-11-18T12:13:13;8.30;;;5.10;;
80586;SDS011;69943;20.850;106.728;2023-11-18T12:15:51;7.10;;;4.80;;
80586;SDS011;69943;20.850;106.728;2023-11-18T12:18:41;8.30;;;5.30;;
80586;SDS011;69943;20.850;106.728;2023-11-18T12:21:25;8.30;;;5.40;;
80586;SDS011;69943;20.850;106.728;2023-11-18T12:24:25;9.00;;;5.40;;
80586;SDS011;69943;20.850;106.728;2023-11-18T12:27:00;7.70;;;4.70;;
80586;SDS011;69943;20.850;106.728;2023-11-18T12:29:34;8.80;;;5.70;;
80586;SDS011;69943;20.850;106.728;2023-11-18T12:32:06;6.50;;;5.20;;
80586;SDS011;69943;20.850;106.728;2023-11-18T12:34:50;7.50;;;5.60;;
80586;SDS011;69943;20.850;106.728;2023-11-18T12:43:07;10.60;;;5.60;;
80586;SDS011;69943;20.850;106.728;2023-11-18T12:45:53;10.10;;;5.90;;
80586;SDS011;69943;20.850;106.728;2023-11-18T12:48:51;9.20;;;5.80;;
80586;SDS011;69943;20.850;106.728;2023-11-18T12:51:28;8.90;;;5.40;;
80586;SDS011;69943;20.850;106.728;2023-11-18T12:54:02;9.70;;;6.00;;
80586;SDS011;69943;20.850;106.728;2023-11-18T12:56:38;14.40;;;6.20;;
80586;SDS011;69943;20.850;106.728;2023-11-18T12:59:10;10.10;;;5.70;;
80586;SDS011;69943;20.850;106.728;2023-11-18T13:01:44;10.90;;;6.50;;
80586;SDS011;69943;20.850;106.728;2023-11-18T13:04:25;11.80;;;5.70;;
80586;SDS011;69943;20.850;106.728;2023-11-18T13:06:58;10.90;;;5.40;;
80586;SDS011;69943;20.850;106.728;2023-11-18T13:09:31;14.60;;;5.90;;
80586;SDS011;69943;20.850;106.728;2023-11-18T13:14:39;10.70;;;6.50;;
80586;SDS011;69943;20.850;106.728;2023-11-18T13:17:13;10.60;;;6.10;;
80586;SDS011;69943;20.850;106.728;2023-11-18T13:19:49;10.80;;;7.50;;
80586;SDS011;69943;20.850;106.728;2023-11-18T13:22:25;9.70;;;6.80;;
80586;SDS011;69943;20.850;106.728;2023-11-18T13:24:58;13.50;;;6.50;;
80586;SDS011;69943;20.850;106.728;2023-11-18T13:27:34;9.00;;;6.50;;
80586;SDS011;69943;20.850;106.728;2023-11-18T13:30:07;10.70;;;7.40;;
80586;SDS011;69943;20.850;106.728;2023-11-18T13:32:44;12.90;;;7.00;;
80586;SDS011;69943;20.850;106.728;2023-11-18T13:35:17;12.40;;;7.10;;
80586;SDS011;69943;20.850;106.728;2023-11-18T13:37:54;12.40;;;6.60;;
80586;SDS011;69943;20.850;106.728;2023-11-18T13:40:41;12.10;;;6.90;;
80586;SDS011;69943;20.850;106.728;2023-11-18T13:43:17;13.00;;;7.10;;
80586;SDS011;69943;20.850;106.728;2023-11-18T13:45:53;14.30;;;7.10;;
80586;SDS011;69943;20.850;106.728;2023-11-18T13:48:27;16.20;;;8.20;;
80586;SDS011;69943;20.850;106.728;2023-11-18T13:50:59;14.90;;;7.20;;
80586;SDS011;69943;20.850;106.728;2023-11-18T13:53:32;13.60;;;7.50;;
80586;SDS011;69943;20.850;106.728;2023-11-18T13:56:05;12.00;;;8.20;;
80586;SDS011;69943;20.850;106.728;2023-11-18T13:58:39;12.60;;;7.30;;
80586;SDS011;69943;20.850;106.728;2023-11-18T14:01:14;11.10;;;8.40;;
80586;SDS011;69943;20.850;106.728;2023-11-18T14:03:48;15.40;;;8.40;;
80586;SDS011;69943;20.850;106.728;2023-11-18T14:06:21;15.60;;;8.30;;
80586;SDS011;69943;20.850;106.728;2023-11-18T14:08:58;13.70;;;7.60;;
80586;SDS011;69943;20.850;106.728;2023-11-18T14:11:31;13.40;;;7.50;;
80586;SDS011;69943;20.850;106.728;2023-11-18T14:14:33;11.90;;;8.20;;
80586;SDS011;69943;20.850;106.728;2023-11-18T14:17:06;15.60;;;8.40;;
80586;SDS011;69943;20.850;106.728;2023-11-18T14:19:40;11.70;;;7.70;;
80586;SDS011;69943;20.850;106.728;2023-11-18T14:22:13;12.30;;;7.80;;
80586;SDS011;69943;20.850;106.728;2023-11-18T14:25:07;15.20;;;8.50;;
80586;SDS011;69943;20.850;106.728;2023-11-18T14:27:40;14.90;;;7.80;;
80586;SDS011;69943;20.850;106.728;2023-11-18T14:30:13;14.60;;;8.00;;
80586;SDS011;69943;20.850;106.728;2023-11-18T14:33:00;21.30;;;8.50;;
80586;SDS011;69943;20.850;106.728;2023-11-18T14:35:47;15.70;;;8.70;;
80586;SDS011;69943;20.850;106.728;2023-11-18T14:38:22;15.00;;;8.70;;
80586;SDS011;69943;20.850;106.728;2023-11-18T14:40:56;17.70;;;8.60;;
80586;SDS011;69943;20.850;106.728;2023-11-18T14:43:30;13.00;;;8.70;;
80586;SDS011;69943;20.850;106.728;2023-11-18T14:46:03;12.70;;;8.00;;
80586;SDS011;69943;20.850;106.728;2023-11-18T14:48:35;18.50;;;8.70;;
80586;SDS011;69943;20.850;106.728;2023-11-18T14:51:10;16.00;;;9.70;;
80586;SDS011;69943;20.850;106.728;2023-11-18T14:53:42;12.20;;;8.30;;
80586;SDS011;69943;20.850;106.728;2023-11-18T14:56:15;18.60;;;8.70;;
80586;SDS011;69943;20.850;106.728;2023-11-18T14:58:50;13.00;;;8.50;;
80586;SDS011;69943;20.850;106.728;2023-11-18T15:01:26;11.40;;;8.10;;
80586;SDS011;69943;20.850;106.728;2023-11-18T15:04:00;15.00;;;8.50;;
80586;SDS011;69943;20.850;106.728;2023-11-18T15:06:36;14.80;;;9.00;;
80586;SDS011;69943;20.850;106.728;2023-11-18T15:09:09;14.60;;;9.00;;
80586;SDS011;69943;20.850;106.728;2023-11-18T15:11:42;15.00;;;9.50;;
80586;SDS011;69943;20.850;106.728;2023-11-18T15:14:15;14.80;;;8.20;;
80586;SDS011;69943;20.850;106.728;2023-11-18T15:16:48;15.60;;;9.60;;
80586;SDS011;69943;20.850;106.728;2023-11-18T15:21:59;14.90;;;8.30;;
80586;SDS011;69943;20.850;106.728;2023-11-18T15:24:32;14.70;;;8.70;;